Accueil
METAR-TAF:

METAR-TAF

Aéroports :

Aéroport international Laâyoune - Hassan Ier

Laâyoune, Maroc

latitude: 27-10N, longitude: 013-12-59W, altitude: 6 m

METAR: absent

Heure: 19:13 (18:13 UTC)

Prévision

Le bulletin a été fait il y a 1 heure et 13 minutes, à 17:00 UTC
Prévision valable du 06 à 18 UTC au 07 à 24 UTC
Vent 20 kt de nord/nord-ouest
Visibilité: 8000 m
Evoluant progressivement
du 07 à 03 UTC au 07 à 06 UTC
Visibilité: 6000 m
Nuages fragmentés à une hauteur de 1200 ft
Evoluant progressivement
du 07 à 09 UTC au 07 à 12 UTC
Visibilité 10 km ou plus
pas de nuages en-dessous de 1500 mètres et pas de cumulonimbus.

TAF: GMML 061700Z 0618/0724 34020KT 8000 NSC BECMG 0703/0706 6000 BKN012 BECMG 0709/0712 CAVOK

Observations et prévisions météorologiques de plus de 4000 aéroports (messages METAR et TAF).

Les stations disponibles sont représentées par des disques jaunes et rouges sur la carte.

Passer la souris dessus pour voir le nom de la station.

Cliquer dessus pour voir les observations et prévisions météorologiques.

Pour changer de carte: cliquez sur les boutons verts avec une croix noire pour zoomer, sur le bouton vert avec un tiret pour effectuer un zoom arrière, ou sur les flèches vertes pour les cartes adjacentes.


METAR-TAF: